Ocean Celebrity — HOSZ — position and weather

sailwx.info

Track history (hours):
 
Tides and Currents Weather Stations Pressure Air Temp Water Temp Dewpoint Dewpoint Depression Visibility Wind Speed Wind Dir Waves Ship Positions

Ocean Celebrity

Last reported at 2017-Feb-13 11:33 UTC. Time now 2017-Feb-23 09:25 UTC.
Position N 01°16' E 103°60'.
Warning: this ship's position is 9 days out of date.

Length 289 m; draft 17.5 m.

Type: Cargo ship. MMSI: 356712000.

Date/timePositionNaut miles runAvg speedWind from/ knotsBaromVisibWave heightAir tempDewpointWater temp
2017-Feb-13 11:33N 01°16' E 103°60'1 0.6
2017-Feb-13 10:29N 01°17' E 103°59'0 0.0
2017-Feb-13 09:29N 01°17' E 103°59'0 0.0
2017-Feb-13 08:32N 01°17' E 103°59'0 0.1
2017-Feb-13 07:32N 01°17' E 103°59'0 0.2
2017-Feb-13 06:32N 01°17' E 103°59'0 0.1
2017-Feb-13 05:05N 01°17' E 103°59'0 0.1
2017-Feb-13 04:32N 01°17' E 103°59'0 0.0
2017-Feb-13 03:05N 01°17' E 103°59'0 0.2
2017-Feb-13 02:29N 01°17' E 103°59'1 1.2
2017-Feb-13 01:33N 01°16' E 103°58'4 4.4
2017-Feb-13 00:33N 01°13' E 103°55'8 7.9
2017-Feb-12 23:33N 01°10' E 103°48'9 9.3
2017-Feb-12 22:33N 01°04' E 103°40'9 9.5
2017-Feb-12 21:33N 01°08' E 103°31'1110.4
2017-Feb-12 20:29N 01°14' E 103°22'5911.1
2017-Feb-12 15:12N 01°45' E 102°32'812.2
2017-Feb-12 14:33N 01°48' E 102°25'  
Track history (hours):
 
Tides and Currents Weather Stations Pressure Air Temp Water Temp Dewpoint Dewpoint Depression Visibility Wind Speed Wind Dir Waves Ship Positions

Ocean Celebrity

Last reported at 2017-Feb-13 11:33 UTC. Time now 2017-Feb-23 09:25 UTC.
Position N 01°16' E 103°60'.
Warning: this ship's position is 9 days out of date.

Length 289 m; draft 17.5 m.

Type: Cargo ship. MMSI: 356712000.

Date/timePositionNaut miles runAvg speedWind from/ knotsBaromVisibWave heightAir tempDewpointWater temp
2017-Feb-13 11:33N 01°16' E 103°60'1 0.6
2017-Feb-13 10:29N 01°17' E 103°59'0 0.0
2017-Feb-13 09:29N 01°17' E 103°59'0 0.0
2017-Feb-13 08:32N 01°17' E 103°59'0 0.1
2017-Feb-13 07:32N 01°17' E 103°59'0 0.2
2017-Feb-13 06:32N 01°17' E 103°59'0 0.1
2017-Feb-13 05:05N 01°17' E 103°59'0 0.1
2017-Feb-13 04:32N 01°17' E 103°59'0 0.0
2017-Feb-13 03:05N 01°17' E 103°59'0 0.2
2017-Feb-13 02:29N 01°17' E 103°59'1 1.2
2017-Feb-13 01:33N 01°16' E 103°58'4 4.4
2017-Feb-13 00:33N 01°13' E 103°55'8 7.9
2017-Feb-12 23:33N 01°10' E 103°48'9 9.3
2017-Feb-12 22:33N 01°04' E 103°40'9 9.5
2017-Feb-12 21:33N 01°08' E 103°31'1110.4
2017-Feb-12 20:29N 01°14' E 103°22'5911.1
2017-Feb-12 15:12N 01°45' E 102°32'812.2
2017-Feb-12 14:33N 01°48' E 102°25'  

Dump ship's entire track history